Time;durP1;ratioP1;P1;durP2;ratioP2;P2;SDS_P1;SDS_P2;PMS_P1;PMS_P2;Temp;Humidity;BMP_temperature;BMP_pressure;BME280_temperature;BME280_humidity;BME280_pressure;Samples;Min_cycle;Max_cycle;Signal;HPM_P1;HPM_P2
2021/09/15 00:01:15;;;;;;;29.02;25.90;;;18.00;99.90;;;;;;5033253;28;20091;-66
2021/09/15 00:03:41;;;;;;;32.17;26.70;;;18.00;99.90;;;;;;5029264;28;20138;-66
2021/09/15 00:06:07;;;;;;;30.75;26.23;;;18.00;99.90;;;;;;5043376;28;20064;-66
2021/09/15 00:08:33;;;;;;;30.10;26.58;;;18.00;99.90;;;;;;5040661;28;20046;-66
2021/09/15 00:11:00;;;;;;;28.40;25.40;;;18.00;99.90;;;;;;5033801;28;20080;-66
2021/09/15 00:13:27;;;;;;;30.42;27.08;;;18.00;99.90;;;;;;5043994;28;20052;-66
2021/09/15 00:15:53;;;;;;;28.77;25.60;;;18.00;99.90;;;;;;5033695;28;20448;-66
2021/09/15 00:18:19;;;;;;;29.55;26.17;;;18.00;99.90;;;;;;5041323;28;20072;-65
2021/09/15 00:20:44;;;;;;;30.30;26.15;;;17.90;99.90;;;;;;5058396;28;20044;-66
2021/09/15 00:23:10;;;;;;;30.52;26.30;;;17.90;99.90;;;;;;5080896;28;20056;-66
2021/09/15 00:25:36;;;;;;;30.77;27.45;;;18.00;99.90;;;;;;5062402;28;20060;-65
2021/09/15 00:28:02;;;;;;;30.75;26.95;;;17.90;99.90;;;;;;5037267;28;20402;-66
2021/09/15 00:30:27;;;;;;;29.35;25.85;;;17.90;99.90;;;;;;5057523;28;20045;-66
2021/09/15 00:32:53;;;;;;;29.02;25.23;;;17.90;99.90;;;;;;5055345;28;20045;-66
2021/09/15 00:35:19;;;;;;;31.90;26.15;;;17.90;99.90;;;;;;5062551;28;20400;-66
2021/09/15 00:37:44;;;;;;;30.55;27.45;;;17.90;99.90;;;;;;5042581;28;20504;-66
2021/09/15 00:40:11;;;;;;;32.05;26.00;;;17.90;99.90;;;;;;5062312;28;20504;-65
2021/09/15 00:42:36;;;;;;;29.67;26.67;;;17.90;99.90;;;;;;5040577;28;20041;-66
2021/09/15 00:45:04;;;;;;;31.27;27.10;;;18.00;99.90;;;;;;5052299;28;20053;-66
2021/09/15 00:47:29;;;;;;;30.58;25.65;;;17.90;99.90;;;;;;5035078;28;20054;-66
2021/09/15 00:49:55;;;;;;;31.63;26.05;;;17.90;99.90;;;;;;5054194;28;20056;-66
2021/09/15 00:52:22;;;;;;;30.55;26.20;;;17.90;99.90;;;;;;5035783;28;20513;-66
2021/09/15 00:54:48;;;;;;;30.80;26.05;;;17.90;99.90;;;;;;5058414;28;20052;-66
2021/09/15 00:57:13;;;;;;;32.40;26.15;;;17.90;99.90;;;;;;5043611;28;20109;-66
2021/09/15 00:59:40;;;;;;;33.85;27.77;;;17.90;99.90;;;;;;5045037;28;20041;-66
2021/09/15 01:02:05;;;;;;;33.55;28.00;;;17.80;99.90;;;;;;5050372;28;20125;-66
2021/09/15 01:04:31;;;;;;;33.17;26.15;;;17.80;99.90;;;;;;5043542;28;20046;-66
2021/09/15 01:06:57;;;;;;;29.33;26.17;;;17.80;99.90;;;;;;5057764;28;20125;-66
2021/09/15 01:09:23;;;;;;;30.15;26.95;;;17.80;99.90;;;;;;5036898;28;20077;-66
2021/09/15 01:11:50;;;;;;;32.25;27.17;;;17.80;99.90;;;;;;5060749;28;20056;-66
2021/09/15 01:14:16;;;;;;;31.33;25.95;;;17.80;99.90;;;;;;5031056;28;20111;-66
2021/09/15 01:16:59;;;;;;;33.03;25.80;;;17.80;99.90;;;;;;5062512;28;20121;-66
2021/09/15 01:19:26;;;;;;;30.70;25.90;;;17.80;99.90;;;;;;5042882;28;20094;-66
2021/09/15 01:21:53;;;;;;;31.42;28.02;;;17.80;99.90;;;;;;5053916;28;20149;-66
2021/09/15 01:24:20;;;;;;;32.92;28.95;;;17.80;99.90;;;;;;5058537;28;20087;-66
2021/09/15 01:26:46;;;;;;;34.40;27.50;;;17.80;99.90;;;;;;5042732;28;20041;-66
2021/09/15 01:29:17;;;;;;;47.63;27.80;;;17.80;99.90;;;;;;5054922;28;20382;-66
2021/09/15 01:32:06;;;;;;;31.13;27.60;;;17.80;99.90;;;;;;5041999;28;20056;-66
2021/09/15 01:34:44;;;;;;;33.03;29.30;;;17.70;99.90;;;;;;5042927;28;20044;-66
2021/09/15 01:37:12;;;;;;;32.05;28.75;;;17.70;99.90;;;;;;5041078;28;20080;-66
2021/09/15 01:39:40;;;;;;;34.40;30.17;;;17.70;99.90;;;;;;5050071;28;20044;-66
2021/09/15 01:42:08;;;;;;;33.10;29.75;;;17.70;99.90;;;;;;5037917;28;20397;-66
2021/09/15 01:44:37;;;;;;;35.63;30.60;;;17.70;99.90;;;;;;5063697;28;20049;-66
2021/09/15 01:47:05;;;;;;;38.53;32.22;;;17.70;99.90;;;;;;5046608;28;20095;-66
2021/09/15 01:49:33;;;;;;;35.05;31.30;;;17.80;99.90;;;;;;5062026;28;20051;-65
2021/09/15 01:51:59;;;;;;;34.60;30.33;;;17.70;99.90;;;;;;5040047;28;20041;-66
2021/09/15 01:54:27;;;;;;;34.50;30.35;;;17.70;99.90;;;;;;5048637;28;20196;-65
2021/09/15 01:56:53;;;;;;;37.33;31.30;;;17.80;99.90;;;;;;5041030;28;20049;-66
2021/09/15 01:59:19;;;;;;;40.45;30.65;;;17.80;99.90;;;;;;5050797;28;20119;-66
2021/09/15 02:01:45;;;;;;;36.92;31.40;;;17.80;99.90;;;;;;5042443;28;20040;-66
2021/09/15 02:04:11;;;;;;;36.75;31.08;;;17.80;99.90;;;;;;5051740;28;20037;-66
2021/09/15 02:06:37;;;;;;;38.65;32.97;;;17.80;99.90;;;;;;5029153;28;20041;-66
2021/09/15 02:09:04;;;;;;;36.80;29.55;;;17.80;99.90;;;;;;5039107;28;20140;-66
2021/09/15 02:11:29;;;;;;;37.50;32.15;;;17.80;99.90;;;;;;5039687;28;20076;-66
2021/09/15 02:13:56;;;;;;;36.72;31.55;;;17.90;99.90;;;;;;5035006;28;20096;-66
2021/09/15 02:16:22;;;;;;;36.60;32.38;;;17.90;99.90;;;;;;5042459;28;20387;-66
2021/09/15 02:18:48;;;;;;;37.72;32.47;;;17.80;99.90;;;;;;5059875;28;20049;-66
2021/09/15 02:21:14;;;;;;;38.20;32.78;;;17.80;99.90;;;;;;5038477;28;20050;-65
2021/09/15 02:23:39;;;;;;;48.38;35.45;;;17.90;99.90;;;;;;5036962;28;20053;-65
2021/09/15 02:26:05;;;;;;;43.67;33.70;;;17.80;99.90;;;;;;5048712;28;20054;-65
2021/09/15 02:28:31;;;;;;;47.85;35.67;;;17.70;99.90;;;;;;5045478;28;20065;-66
2021/09/15 02:30:57;;;;;;;41.47;33.95;;;17.70;99.90;;;;;;5044944;28;20042;-65
2021/09/15 02:33:22;;;;;;;45.38;36.53;;;17.60;99.90;;;;;;5044816;28;20038;-65
2021/09/15 02:35:48;;;;;;;41.58;33.50;;;17.60;99.90;;;;;;5048862;28;20042;-65
2021/09/15 02:38:14;;;;;;;44.33;37.40;;;17.60;99.90;;;;;;5045700;28;20074;-65
2021/09/15 02:40:41;;;;;;;44.97;37.25;;;17.60;99.90;;;;;;5033889;28;20056;-65
2021/09/15 02:43:07;;;;;;;45.88;38.50;;;17.60;99.90;;;;;;5036887;28;20420;-65
2021/09/15 02:45:32;;;;;;;51.03;37.60;;;17.60;99.90;;;;;;5060628;28;20096;-67
2021/09/15 02:47:58;;;;;;;50.83;37.88;;;17.60;99.90;;;;;;5043382;28;20053;-67
2021/09/15 02:50:24;;;;;;;45.75;38.50;;;17.60;99.90;;;;;;5057054;28;20473;-67
2021/09/15 02:52:49;;;;;;;46.30;38.28;;;17.60;99.90;;;;;;5052794;28;20039;-65
2021/09/15 02:55:15;;;;;;;54.20;40.92;;;17.50;99.90;;;;;;5029865;28;20081;-65
2021/09/15 02:57:41;;;;;;;47.83;39.80;;;17.50;99.90;;;;;;5047505;28;20037;-66
2021/09/15 03:00:07;;;;;;;50.28;41.45;;;17.50;99.90;;;;;;5056143;28;20037;-65
2021/09/15 03:02:33;;;;;;;49.75;40.95;;;17.50;99.90;;;;;;5051366;28;20044;-65
2021/09/15 03:04:59;;;;;;;51.65;40.25;;;17.50;99.90;;;;;;5056918;28;20048;-65
2021/09/15 03:07:24;;;;;;;57.92;43.92;;;17.50;99.90;;;;;;5046965;28;20057;-65
2021/09/15 03:09:50;;;;;;;55.65;43.33;;;17.40;99.90;;;;;;5049530;28;20045;-65
2021/09/15 03:12:15;;;;;;;57.58;42.83;;;17.40;99.90;;;;;;5041692;28;20033;-65
2021/09/15 03:14:41;;;;;;;54.28;42.38;;;17.30;99.90;;;;;;5036592;28;20052;-65
2021/09/15 03:17:07;;;;;;;61.00;42.88;;;17.30;99.90;;;;;;5050066;28;20049;-66
2021/09/15 03:19:32;;;;;;;58.63;45.13;;;17.30;99.90;;;;;;5047663;28;20037;-65
2021/09/15 03:21:58;;;;;;;65.15;46.67;;;17.30;99.90;;;;;;5053782;28;20045;-65
2021/09/15 03:24:24;;;;;;;63.97;46.03;;;17.30;99.90;;;;;;5048394;28;20647;-66
2021/09/15 03:26:51;;;;;;;68.10;49.88;;;17.30;99.90;;;;;;5057179;28;20057;-66
2021/09/15 03:29:16;;;;;;;59.88;46.47;;;17.30;99.90;;;;;;5042679;28;20029;-67
2021/09/15 03:31:43;;;;;;;67.43;49.85;;;17.30;99.90;;;;;;5041430;28;20764;-67
2021/09/15 03:34:08;;;;;;;66.30;48.05;;;17.20;99.90;;;;;;5081255;28;20045;-65
2021/09/15 03:36:34;;;;;;;66.60;48.83;;;17.20;99.90;;;;;;5039946;28;20057;-65
2021/09/15 03:39:00;;;;;;;73.05;52.67;;;17.10;99.90;;;;;;5035734;28;20097;-65
2021/09/15 03:41:25;;;;;;;71.75;51.15;;;17.10;99.90;;;;;;5053471;28;20064;-66
2021/09/15 03:43:51;;;;;;;72.15;50.30;;;17.10;99.90;;;;;;5033648;28;20033;-65
2021/09/15 03:46:17;;;;;;;77.22;53.08;;;17.10;99.90;;;;;;5055946;28;20531;-65
2021/09/15 03:48:44;;;;;;;73.13;51.33;;;17.20;99.90;;;;;;5047737;28;20041;-65
2021/09/15 03:51:09;;;;;;;73.80;53.53;;;17.00;99.90;;;;;;5046518;28;20041;-65
2021/09/15 03:53:35;;;;;;;81.63;53.72;;;17.00;99.90;;;;;;5049154;28;20096;-65
2021/09/15 03:56:01;;;;;;;78.28;56.20;;;17.00;99.90;;;;;;5047161;28;20058;-65
2021/09/15 03:58:27;;;;;;;81.15;55.88;;;17.00;99.90;;;;;;5035179;28;20045;-66
2021/09/15 04:00:52;;;;;;;75.50;52.58;;;16.90;99.90;;;;;;5050784;28;20064;-66
2021/09/15 04:03:18;;;;;;;77.32;52.35;;;17.00;99.90;;;;;;5034963;28;20045;-66
2021/09/15 04:05:44;;;;;;;83.30;57.10;;;16.90;99.90;;;;;;5050593;28;20104;-66
2021/09/15 04:08:09;;;;;;;86.28;56.80;;;16.90;99.90;;;;;;5037175;28;20053;-66
2021/09/15 04:10:35;;;;;;;83.00;56.60;;;16.90;99.90;;;;;;5050208;28;20041;-66
2021/09/15 04:13:01;;;;;;;82.25;59.20;;;16.90;99.90;;;;;;5038534;28;20046;-66
2021/09/15 04:15:27;;;;;;;87.93;57.78;;;16.80;99.90;;;;;;5032957;28;20050;-67
2021/09/15 04:17:53;;;;;;;86.65;59.97;;;16.80;99.90;;;;;;5050788;28;20046;-66
2021/09/15 04:20:19;;;;;;;84.65;58.47;;;16.80;99.90;;;;;;5041385;28;20057;-66
2021/09/15 04:22:45;;;;;;;84.80;56.20;;;16.80;99.90;;;;;;5050061;28;20057;-66
2021/09/15 04:33:24;;;;;;;105.60;66.05;;;16.70;99.90;;;;;;5057258;28;20045;-66
2021/09/15 04:35:50;;;;;;;112.75;71.15;;;16.70;99.90;;;;;;5040368;28;20042;-66
2021/09/15 04:38:16;;;;;;;113.45;72.72;;;16.70;99.90;;;;;;5041413;28;20065;-67
2021/09/15 04:40:42;;;;;;;118.50;70.63;;;16.70;99.90;;;;;;5046341;28;20045;-67
2021/09/15 04:43:07;;;;;;;113.07;70.95;;;16.70;99.90;;;;;;5082606;28;20089;-68
2021/09/15 04:45:33;;;;;;;108.97;68.38;;;16.70;99.90;;;;;;5043445;28;20056;-65
2021/09/15 04:47:59;;;;;;;114.47;72.05;;;16.70;99.90;;;;;;5044611;28;20065;-65
2021/09/15 04:50:24;;;;;;;115.40;68.63;;;16.60;99.90;;;;;;5045414;28;20101;-65
2021/09/15 04:52:50;;;;;;;118.32;69.68;;;16.60;99.90;;;;;;5054310;28;20042;-65
2021/09/15 04:55:16;;;;;;;117.13;69.47;;;16.60;99.90;;;;;;5059701;28;20590;-65
2021/09/15 04:57:41;;;;;;;117.45;71.95;;;16.60;99.90;;;;;;5041871;28;20044;-66
2021/09/15 05:00:08;;;;;;;116.63;69.55;;;16.60;99.90;;;;;;5059069;28;20048;-67
2021/09/15 05:02:33;;;;;;;126.68;73.20;;;16.60;99.90;;;;;;5053075;28;20051;-66
2021/09/15 05:04:59;;;;;;;120.28;69.47;;;16.50;99.90;;;;;;5046071;28;20481;-66
2021/09/15 05:07:24;;;;;;;129.85;72.50;;;16.60;99.90;;;;;;5083430;28;20088;-66
2021/09/15 05:09:50;;;;;;;117.65;70.93;;;16.50;99.90;;;;;;5056096;28;20045;-66
2021/09/15 05:12:16;;;;;;;123.47;70.20;;;16.60;99.90;;;;;;5050288;28;20052;-66
2021/09/15 05:14:42;;;;;;;128.38;74.63;;;16.60;99.90;;;;;;5061045;28;20036;-67
2021/09/15 05:17:08;;;;;;;124.32;75.35;;;16.60;99.90;;;;;;5050058;28;20041;-68
2021/09/15 05:19:34;;;;;;;125.68;72.97;;;16.60;99.90;;;;;;5039775;28;20051;-67
2021/09/15 05:21:59;;;;;;;140.43;77.13;;;16.50;99.90;;;;;;5049408;28;20115;-68
2021/09/15 05:24:25;;;;;;;129.85;74.93;;;16.50;99.90;;;;;;5045546;28;20045;-66
2021/09/15 05:26:51;;;;;;;122.38;70.03;;;16.50;99.90;;;;;;5058349;28;20041;-67
2021/09/15 05:29:16;;;;;;;136.02;75.88;;;16.50;99.90;;;;;;5039534;28;20050;-67
2021/09/15 05:31:42;;;;;;;136.85;76.20;;;16.50;99.90;;;;;;5043448;28;20041;-67
2021/09/15 05:34:08;;;;;;;127.53;71.15;;;16.50;99.90;;;;;;5038709;28;20046;-67
2021/09/15 05:36:33;;;;;;;147.05;79.50;;;16.40;99.90;;;;;;5048335;28;20046;-65
2021/09/15 05:38:59;;;;;;;143.40;79.10;;;16.40;99.90;;;;;;5045063;28;20052;-67
2021/09/15 05:41:24;;;;;;;125.03;72.90;;;16.50;99.90;;;;;;5048502;28;20068;-67
2021/09/15 05:43:50;;;;;;;124.60;74.50;;;16.50;99.90;;;;;;5056662;28;20060;-67
2021/09/15 05:46:16;;;;;;;135.35;76.07;;;16.60;99.90;;;;;;5040375;28;20088;-67
2021/09/15 05:48:41;;;;;;;123.50;69.32;;;16.70;99.90;;;;;;5055476;28;20052;-67
2021/09/15 05:51:07;;;;;;;124.18;70.28;;;16.70;99.90;;;;;;5037316;28;20108;-66
2021/09/15 05:53:33;;;;;;;112.30;67.60;;;16.80;99.90;;;;;;5055497;28;20041;-66
2021/09/15 05:55:58;;;;;;;111.38;68.18;;;16.80;99.90;;;;;;5034229;28;20141;-66
2021/09/15 05:58:24;;;;;;;106.43;64.85;;;16.80;99.90;;;;;;5056190;28;20061;-67
2021/09/15 06:00:50;;;;;;;103.35;65.78;;;16.90;99.90;;;;;;5035743;28;20041;-66
2021/09/15 06:03:16;;;;;;;98.70;62.85;;;16.90;99.90;;;;;;5046508;28;20041;-67
2021/09/15 06:05:41;;;;;;;105.65;64.72;;;17.00;99.90;;;;;;5043129;28;20041;-66
2021/09/15 06:08:07;;;;;;;102.57;63.97;;;17.10;99.90;;;;;;5040555;28;20041;-66
2021/09/15 06:10:33;;;;;;;88.63;59.13;;;17.10;99.90;;;;;;5042432;28;20068;-66
2021/09/15 06:12:59;;;;;;;97.28;60.13;;;17.20;99.90;;;;;;5039013;28;20071;-66
2021/09/15 06:15:24;;;;;;;93.82;59.88;;;17.20;99.90;;;;;;5052830;28;20045;-66
2021/09/15 06:17:50;;;;;;;86.45;58.40;;;17.20;99.90;;;;;;5039661;28;20060;-66
2021/09/15 06:20:16;;;;;;;86.55;58.88;;;17.30;99.90;;;;;;5040913;28;20037;-66
2021/09/15 06:22:41;;;;;;;90.63;58.72;;;17.40;99.90;;;;;;5030482;28;20042;-66
2021/09/15 06:25:08;;;;;;;89.00;58.08;;;17.40;99.90;;;;;;5041636;28;20592;-66
2021/09/15 06:27:35;;;;;;;82.38;55.15;;;17.50;99.90;;;;;;5042510;28;20595;-65
2021/09/15 06:30:01;;;;;;;80.70;54.58;;;17.50;99.90;;;;;;5056197;28;20041;-66
2021/09/15 06:32:27;;;;;;;79.13;55.75;;;17.60;99.90;;;;;;5038996;28;20076;-66
2021/09/15 06:34:54;;;;;;;81.13;54.80;;;17.60;99.90;;;;;;5056144;28;20037;-66
2021/09/15 06:37:20;;;;;;;83.72;56.03;;;17.70;99.90;;;;;;5049661;28;20042;-66
2021/09/15 06:39:46;;;;;;;75.30;54.20;;;17.70;99.90;;;;;;5049480;28;20467;-66
2021/09/15 06:42:18;;;;;;;82.65;54.90;;;17.70;99.90;;;;;;5054938;28;20053;-67
2021/09/15 06:44:44;;;;;;;77.57;55.17;;;17.70;99.90;;;;;;5039931;28;20506;-66
2021/09/15 06:47:09;;;;;;;79.22;54.63;;;17.70;99.90;;;;;;5047879;28;20524;-66
2021/09/15 06:49:35;;;;;;;79.97;53.97;;;17.80;99.90;;;;;;5045179;28;20037;-66
2021/09/15 06:52:01;;;;;;;78.43;52.28;;;17.80;99.90;;;;;;5048512;28;20050;-68
2021/09/15 06:54:27;;;;;;;79.85;53.92;;;17.80;99.90;;;;;;5046816;28;20041;-67
2021/09/15 06:56:52;;;;;;;85.05;56.60;;;17.80;99.90;;;;;;5055259;28;20077;-66
2021/09/15 06:59:18;;;;;;;77.78;53.83;;;17.90;99.90;;;;;;5039451;28;20567;-66
2021/09/15 07:01:44;;;;;;;79.25;53.20;;;17.90;99.90;;;;;;5042469;28;20094;-66
2021/09/15 07:04:10;;;;;;;76.03;50.88;;;17.90;99.90;;;;;;5045938;28;20041;-66
2021/09/15 07:06:35;;;;;;;81.22;53.55;;;17.90;99.90;;;;;;5033947;28;20054;-67
2021/09/15 07:09:01;;;;;;;85.30;51.88;;;18.00;99.90;;;;;;5041022;28;20049;-66
2021/09/15 07:11:27;;;;;;;73.68;49.08;;;18.00;99.90;;;;;;5041644;28;20124;-65
2021/09/15 07:13:52;;;;;;;74.55;49.95;;;18.00;99.90;;;;;;5038033;28;20061;-67
2021/09/15 07:16:18;;;;;;;77.70;52.42;;;18.10;99.90;;;;;;5039730;28;20045;-67
2021/09/15 07:18:44;;;;;;;76.57;50.78;;;18.10;99.90;;;;;;5042594;28;20041;-66
2021/09/15 07:21:10;;;;;;;67.95;47.28;;;18.10;99.90;;;;;;5041581;28;20049;-66
2021/09/15 07:23:36;;;;;;;77.97;49.90;;;18.10;99.90;;;;;;5043104;28;20053;-66
2021/09/15 07:26:02;;;;;;;77.55;49.80;;;18.20;99.90;;;;;;5020274;28;20050;-66
2021/09/15 07:28:28;;;;;;;77.40;50.53;;;18.20;99.90;;;;;;5046103;28;20108;-65
2021/09/15 07:30:53;;;;;;;71.68;50.80;;;18.20;99.90;;;;;;5047101;28;20048;-66
2021/09/15 07:33:19;;;;;;;69.05;47.17;;;18.30;99.90;;;;;;5042288;28;20047;-66
2021/09/15 07:35:45;;;;;;;68.75;46.53;;;18.30;99.90;;;;;;5039235;28;20037;-66
2021/09/15 07:38:11;;;;;;;69.60;47.47;;;18.40;99.90;;;;;;5041251;28;21039;-66
2021/09/15 07:40:36;;;;;;;74.57;48.05;;;18.30;99.90;;;;;;5044006;28;20494;-65
2021/09/15 07:43:02;;;;;;;71.10;47.25;;;18.40;99.90;;;;;;5046069;28;20061;-66
2021/09/15 07:45:28;;;;;;;61.92;44.15;;;18.50;99.90;;;;;;5046469;28;20102;-66
2021/09/15 07:47:54;;;;;;;66.65;44.08;;;18.50;99.90;;;;;;5042869;28;20037;-66
2021/09/15 07:50:21;;;;;;;65.03;45.03;;;18.60;99.90;;;;;;5051958;28;20041;-65
2021/09/15 07:52:46;;;;;;;65.20;45.58;;;18.70;99.90;;;;;;5046703;28;20531;-66
2021/09/15 07:55:12;;;;;;;66.93;44.38;;;18.80;99.90;;;;;;5040707;28;20061;-66
2021/09/15 07:57:43;;;;;;;64.97;44.90;;;18.80;99.90;;;;;;5041573;28;20046;-65
2021/09/15 08:00:10;;;;;;;64.07;44.90;;;18.90;99.90;;;;;;5071220;28;20054;-65
2021/09/15 08:02:35;;;;;;;66.40;45.83;;;18.90;99.90;;;;;;5041374;28;20575;-66
2021/09/15 08:05:01;;;;;;;68.75;45.78;;;18.90;99.90;;;;;;5039801;28;20288;-66
2021/09/15 08:07:27;;;;;;;65.18;44.83;;;18.90;99.90;;;;;;5042141;28;20060;-69
2021/09/15 08:09:52;;;;;;;64.95;43.70;;;18.90;99.90;;;;;;5043437;28;20033;-65
2021/09/15 08:12:18;;;;;;;68.35;47.15;;;19.00;99.90;;;;;;5041278;28;20037;-64
2021/09/15 08:14:44;;;;;;;61.55;43.80;;;19.10;99.90;;;;;;5075785;28;20044;-64
2021/09/15 08:17:10;;;;;;;64.00;45.60;;;19.20;99.90;;;;;;5045450;28;20215;-67
2021/09/15 08:19:35;;;;;;;68.07;44.80;;;19.30;99.90;;;;;;5043696;28;20544;-64
2021/09/15 08:22:01;;;;;;;59.70;45.30;;;19.40;99.90;;;;;;5045181;28;20055;-73
2021/09/15 08:24:27;;;;;;;60.50;43.53;;;19.60;99.90;;;;;;5045679;28;20037;-65
2021/09/15 08:26:53;;;;;;;57.78;42.25;;;19.70;99.90;;;;;;5042731;28;20125;-65
2021/09/15 08:29:18;;;;;;;57.92;42.47;;;19.80;99.90;;;;;;5043716;28;20050;-64
2021/09/15 08:31:44;;;;;;;59.95;44.05;;;20.00;99.90;;;;;;5044478;28;20049;-68
2021/09/15 08:34:10;;;;;;;58.90;42.97;;;20.10;99.90;;;;;;5009335;28;20152;-72
2021/09/15 08:36:35;;;;;;;52.35;39.58;;;20.20;99.90;;;;;;5043253;28;20045;-61
2021/09/15 08:39:02;;;;;;;59.80;41.08;;;20.50;99.90;;;;;;5043082;28;20045;-61
2021/09/15 08:41:28;;;;;;;54.47;39.67;;;20.40;99.90;;;;;;5041443;28;20049;-61
2021/09/15 08:43:53;;;;;;;53.40;39.45;;;20.50;99.90;;;;;;5042133;28;20136;-61
2021/09/15 08:46:20;;;;;;;52.67;39.00;;;20.50;99.90;;;;;;5045312;28;20037;-62
2021/09/15 08:48:47;;;;;;;51.90;39.50;;;20.50;99.90;;;;;;5043880;28;20040;-62
2021/09/15 08:51:16;;;;;;;54.40;39.05;;;20.60;99.90;;;;;;5043105;28;20041;-62
2021/09/15 08:53:44;;;;;;;50.28;38.40;;;20.70;99.90;;;;;;5044260;28;20055;-62
2021/09/15 08:56:10;;;;;;;;;;;20.80;99.90;;;;;;5049383;28;20076;-62
2021/09/15 08:58:36;;;;;;;57.17;39.33;;;20.80;99.90;;;;;;5040084;28;19921;-62
2021/09/15 09:01:13;;;;;;;61.20;40.28;;;20.70;99.90;;;;;;5040918;28;20045;-62
2021/09/15 09:03:41;;;;;;;54.72;38.90;;;20.70;99.90;;;;;;5041967;28;20041;-63
2021/09/15 09:06:11;;;;;;;61.35;38.17;;;20.80;99.90;;;;;;5046041;28;20498;-63
2021/09/15 09:08:42;;;;;;;49.83;37.17;;;20.70;99.90;;;;;;5042366;28;20041;-64
2021/09/15 09:11:08;;;;;;;54.45;39.22;;;20.70;99.90;;;;;;5045856;28;20049;-62
2021/09/15 09:13:44;;;;;;;50.85;37.55;;;20.70;99.90;;;;;;5038315;28;20044;-63
2021/09/15 09:16:10;;;;;;;49.58;37.25;;;20.80;99.90;;;;;;5041234;28;20645;-63
2021/09/15 09:18:57;;;;;;;48.83;37.92;;;20.90;99.90;;;;;;5042153;28;20056;-63
2021/09/15 09:21:29;;;;;;;56.65;40.72;;;20.90;99.90;;;;;;5040637;28;20045;-63
2021/09/15 09:23:57;;;;;;;55.85;39.35;;;20.80;99.90;;;;;;5043112;28;20045;-63
2021/09/15 09:26:23;;;;;;;52.38;39.30;;;20.90;99.90;;;;;;5042083;28;20049;-63
2021/09/15 09:28:49;;;;;;;52.70;39.20;;;20.90;99.90;;;;;;5047058;28;20038;-62
2021/09/15 09:31:14;;;;;;;52.47;38.83;;;20.90;99.90;;;;;;5045219;28;20044;-63
2021/09/15 09:33:40;;;;;;;54.92;39.00;;;20.80;99.90;;;;;;5038832;28;20045;-63
2021/09/15 09:36:08;;;;;;;53.17;39.67;;;20.70;99.90;;;;;;5045798;28;20060;-62
2021/09/15 09:38:36;;;;;;;52.42;40.42;;;20.70;99.90;;;;;;5046752;28;20048;-63
2021/09/15 09:41:19;;;;;;;53.03;39.88;;;20.70;99.90;;;;;;5038757;28;20124;-63
2021/09/15 09:43:52;;;;;;;55.70;39.50;;;20.60;99.90;;;;;;5037040;28;20061;-62
2021/09/15 09:46:27;;;;;;;52.33;37.38;;;20.50;99.90;;;;;;5036453;28;20064;-62
2021/09/15 09:48:55;;;;;;;61.47;40.90;;;20.60;99.90;;;;;;5040701;28;20050;-68
2021/09/15 09:51:41;;;;;;;57.97;39.90;;;20.60;99.90;;;;;;5058081;28;20056;-70
2021/09/15 09:54:12;;;;;;;58.33;41.30;;;20.50;99.90;;;;;;5036382;28;20490;-67
2021/09/15 09:56:42;;;;;;;55.75;41.40;;;20.70;99.90;;;;;;5046660;28;20049;-72
2021/09/15 09:59:09;;;;;;;53.38;39.05;;;20.80;99.90;;;;;;5043812;28;20049;-71
2021/09/15 10:01:46;;;;;;;49.78;36.55;;;21.00;99.90;;;;;;5041892;28;20045;-68
2021/09/15 10:04:14;;;;;;;54.33;38.63;;;21.30;99.90;;;;;;5043570;28;20061;-68
2021/09/15 10:06:41;;;;;;;51.90;37.95;;;21.20;99.90;;;;;;5043300;28;20096;-68
2021/09/15 10:09:07;;;;;;;54.50;37.67;;;21.30;99.90;;;;;;5041415;28;20064;-68
2021/09/15 10:11:35;;;;;;;51.30;36.78;;;21.40;99.90;;;;;;5045848;28;20050;-68
2021/09/15 10:14:03;;;;;;;51.20;37.22;;;21.50;99.90;;;;;;5038580;28;20038;-68
2021/09/15 10:16:33;;;;;;;51.38;37.65;;;21.50;99.90;;;;;;5040311;28;20037;-67
2021/09/15 10:19:06;;;;;;;50.72;37.65;;;21.50;99.90;;;;;;5037877;28;20045;-67
2021/09/15 10:21:34;;;;;;;48.13;35.55;;;21.60;99.90;;;;;;5040737;28;20045;-67
2021/09/15 10:24:01;;;;;;;48.70;35.78;;;21.60;99.90;;;;;;5042313;28;20060;-69
2021/09/15 10:26:36;;;;;;;51.22;35.80;;;21.70;99.90;;;;;;5037501;28;20081;-65
2021/09/15 10:29:27;;;;;;;48.42;32.67;;;21.80;99.90;;;;;;5042494;28;20075;-63
2021/09/15 10:32:01;;;;;;;46.08;31.52;;;21.80;99.90;;;;;;5044172;28;20488;-70
2021/09/15 10:34:38;;;;;;;41.95;29.80;;;21.70;99.90;;;;;;5038968;28;20089;-71
2021/09/15 10:37:09;;;;;;;35.65;27.25;;;21.70;99.90;;;;;;5042828;28;20633;-66
2021/09/15 10:39:54;;;;;;;44.13;29.58;;;21.50;99.90;;;;;;5052300;28;20417;-69
2021/09/15 10:42:35;;;;;;;35.88;27.40;;;21.30;99.90;;;;;;5036754;28;20053;-67
2021/09/15 10:45:16;;;;;;;33.83;26.02;;;21.60;99.90;;;;;;5040193;28;20057;-63
2021/09/15 10:47:59;;;;;;;35.75;26.42;;;21.80;99.90;;;;;;5041893;28;20057;-60
2021/09/15 10:50:46;;;;;;;34.58;26.85;;;22.00;99.90;;;;;;4997253;28;20054;-67
2021/09/15 10:53:13;;;;;;;35.67;26.85;;;21.80;99.90;;;;;;5001201;28;20066;-66
2021/09/15 10:55:51;;;;;;;38.00;28.45;;;21.80;99.90;;;;;;4999834;28;20054;-67
2021/09/15 10:58:18;;;;;;;;;;;21.60;99.90;;;;;;5000271;28;20062;-63
2021/09/15 11:00:48;;;;;;;35.00;27.50;;;21.40;99.90;;;;;;4996664;28;19932;-64
2021/09/15 11:03:35;;;;;;;40.90;28.33;;;21.50;99.90;;;;;;4995461;28;21074;-62
2021/09/15 11:06:07;;;;;;;38.90;28.48;;;21.40;99.90;;;;;;4999315;28;20057;-65
2021/09/15 11:08:40;;;;;;;41.10;30.27;;;21.20;99.90;;;;;;4998207;28;20054;-62
2021/09/15 11:11:27;;;;;;;43.33;31.00;;;21.10;99.90;;;;;;4998458;28;20050;-62
2021/09/15 11:13:59;;;;;;;39.80;28.70;;;21.10;99.90;;;;;;4986554;28;20197;-62
2021/09/15 11:16:27;;;;;;;39.60;28.80;;;21.40;99.90;;;;;;4997716;28;20066;-62
2021/09/15 11:19:01;;;;;;;38.35;25.40;;;21.90;99.90;;;;;;4984688;28;20046;-61
2021/09/15 11:21:30;;;;;;;32.13;23.85;;;22.50;99.90;;;;;;5012181;28;20045;-61
2021/09/15 11:24:09;;;;;;;35.63;24.77;;;22.80;99.90;;;;;;5039809;28;20045;-61
2021/09/15 11:26:41;;;;;;;29.45;22.95;;;23.00;99.90;;;;;;5043427;28;20037;-62
2021/09/15 11:29:07;;;;;;;29.83;22.48;;;23.10;99.90;;;;;;5035899;28;20069;-64
2021/09/15 11:31:37;;;;;;;29.50;22.73;;;22.90;99.90;;;;;;5042485;28;20053;-65
2021/09/15 11:34:14;;;;;;;28.48;20.02;;;22.70;99.90;;;;;;5071115;28;20065;-64
2021/09/15 11:36:48;;;;;;;29.70;21.23;;;22.60;99.90;;;;;;5040202;28;20095;-63
2021/09/15 11:39:17;;;;;;;30.45;22.27;;;22.60;99.90;;;;;;5045968;28;20160;-62
2021/09/15 11:41:43;;;;;;;28.73;20.17;;;22.50;99.90;;;;;;5047585;28;20030;-75
2021/09/15 11:44:13;;;;;;;29.65;22.67;;;22.60;99.90;;;;;;5037761;28;20481;-67
2021/09/15 11:46:38;;;;;;;30.27;21.45;;;22.60;99.90;;;;;;5034137;28;20057;-65
2021/09/15 11:49:04;;;;;;;29.25;21.27;;;22.80;99.90;;;;;;5046757;28;20072;-69
2021/09/15 11:51:33;;;;;;;29.13;20.95;;;22.70;99.90;;;;;;5038968;28;20433;-66
2021/09/15 11:54:13;;;;;;;27.60;21.08;;;22.50;99.90;;;;;;5043932;28;20048;-66
2021/09/15 11:59:11;;;;;;;33.03;22.30;;;22.60;99.90;;;;;;5046392;28;20084;-68
2021/09/15 12:01:41;;;;;;;26.67;20.35;;;22.70;99.90;;;;;;5039508;28;20072;-66
2021/09/15 12:04:08;;;;;;;28.38;20.48;;;22.80;99.90;;;;;;5072514;28;20902;-63
2021/09/15 12:06:35;;;;;;;26.05;20.35;;;22.90;99.90;;;;;;5039644;28;20044;-66
2021/09/15 12:09:02;;;;;;;25.45;20.42;;;23.10;99.90;;;;;;5039376;28;20109;-66
2021/09/15 12:11:33;;;;;;;30.85;21.35;;;23.40;99.90;;;;;;5055359;28;20049;-67
2021/09/15 12:14:01;;;;;;;28.45;20.17;;;23.40;99.90;;;;;;5042440;28;20053;-66
2021/09/15 12:16:30;;;;;;;;;;;23.10;99.90;;;;;;5043801;28;20042;-66
2021/09/15 12:18:56;;;;;;;25.13;19.52;;;23.10;99.90;;;;;;5042741;28;19928;-67
2021/09/15 12:21:24;;;;;;;29.77;21.58;;;23.40;99.90;;;;;;5049621;28;20045;-66
2021/09/15 12:23:51;;;;;;;28.83;21.60;;;23.20;99.90;;;;;;5044323;28;20053;-66
2021/09/15 12:26:24;;;;;;;26.00;19.60;;;23.40;99.90;;;;;;5037578;28;20029;-66
2021/09/15 12:29:01;;;;;;;24.05;18.50;;;23.40;99.90;;;;;;5040436;28;21613;-73
2021/09/15 12:31:46;;;;;;;26.40;21.15;;;23.60;99.90;;;;;;5026492;28;20056;-65
2021/09/15 12:34:26;;;;;;;31.88;23.27;;;23.50;99.90;;;;;;5042760;28;20060;-66
2021/09/15 12:36:51;;;;;;;29.63;23.45;;;23.10;99.90;;;;;;5039604;28;20049;-65
2021/09/15 12:39:17;;;;;;;23.40;16.92;;;22.90;99.90;;;;;;5041566;28;20353;-63